Tiempo atmosférico en la estación meteorológica de Eivissa Aeropuerto, Illes Balears (6 m.)



Fecha
DESCASC
Temp. máxima en grados centígrados (hora)
DESCASC
Temp. mínima en grados centígrados (hora)
DESCASC
Temp. media en grados centígrados
DESCASC
Racha de viento máxima en m/sg (hora)
DESCASC
Velocidad máxima media en intervalos de 10 minutos(hora)
DESCASC
Precipitaciones diarias en mm
DESCASC
Precipitaciones de 00:00 a 06:00 en mm
DESCASC
Precipitaciones de 06:00 a 12:00 en mm
DESCASC
Precipitaciones de 12:00 a 18:00 en mm
DESCASC
Precipitaciones de 18:00 a 24:00 en mm
DESCASC

Gráficas

Temp. máximas Temp. mínimas Temp. medias Precipitaciones Rachas de viento máximas Velocidades máximas media en intervalos de 10 minutos

Datos horarios

Fecha y hora oficial Temperatura (ºC) Velocidad del viento (km/h) Dirección del viento Racha (km/h) Dirección de racha Precipitación (mm) Presión (hPa) Tendencia (hPa) Humedad (%)
2020-02-16 23:00:00 13.1 19 Sudoeste 30 Sudoeste 0 1025.3 -0.3 80
2020-02-16 22:00:00 13.1 16 Sur 30 Sudoeste 0 1025.6 0.5 79
2020-02-16 21:00:00 13.1 17 Sudoeste 26 Sudoeste 0 1025.7 0.9 79
2020-02-16 20:00:00 13.2 15 Sur 24 Sudoeste 0 1025.6 0.9 79
2020-02-16 19:00:00 13.3 14 Sur 30 Sur 0 1025.1 0.3 79
2020-02-16 18:00:00 13.5 15 Sudoeste 24 Sur 0 1024.8 -0.2 78
2020-02-16 17:00:00 13.8 15 Sur 24 Sur 0 1024.7 -0.9 77
2020-02-16 16:00:00 14.2 16 Sudoeste 22 Sur 0 1024.8 -1.5 76
2020-02-16 15:00:00 14.2 15 Sudoeste 26 Sur 0 1025 -2.2 76
2020-02-16 14:00:00 14.5 17 Sudoeste 28 Sudoeste 0 1025.6 -1.7 75
2020-02-16 13:00:00 14.7 16 Sudoeste 26 Sudoeste 0 1026.3 -0.4 73
2020-02-16 12:00:00 14.1 16 Sudoeste 24 Sur 0 1027.2 0.9 76
2020-02-16 11:00:00 13.8 16 Sudoeste 24 Sur 0 1027.3 1.5 76
2020-02-16 10:00:00 13.3 14 Sur 24 Sudoeste 0 1026.7 1.4 78
2020-02-16 09:00:00 13.1 12 Sur 21 Sur 0 1026.3 0.5 79
2020-02-16 08:00:00 12.9 12 Sudoeste 21 Sudoeste 0 1025.8 0 79
2020-02-16 07:00:00 12.8 13 Sur 22 Sur 0 1025.3 -1 80
2020-02-16 06:00:00 12.8 10 Sur 21 Sur 0 1025.8 -0.8 81
2020-02-16 05:00:00 12.8 10 Sur 21 Sudoeste 0 1025.8 -0.8 80
2020-02-16 04:00:00 12.9 11 Sudoeste 21 Sur 0 1026.3 -0.4 80
2020-02-16 03:00:00 12.8 13 Sur 24 Sur 0 1026.6 0.3 81
2020-02-16 02:00:00 12.8 16 Sudoeste 24 Sudoeste 0 1026.6 -0.2 82
2020-02-16 01:00:00 12.9 11 Sur 24 Sudoeste 0 1026.7 -0.1 81
2020-02-16 00:00:00 13.1 13 Sur 22 Sur 0 1026.3 0 81
2020-02-15 23:00:00 13.2 11 Sur 22 Sur 0 1026.8 1.2 80
2020-02-15 22:00:00 13.2 10 Sur 22 Sudoeste 0 1026.8 2 81
2020-02-15 21:00:00 12.9 14 Sudoeste 22 Sudoeste 0 1026.3 1.1 81
2020-02-15 20:00:00 12.9 10 Sudeste 18 Sudeste 0 1025.6 0.4 81
2020-02-15 19:00:00 13.1 10 Sur 21 Sudeste 0 1024.8 0.1 81
2020-02-15 18:00:00 13.6 8 Sudoeste 18 Sur 0 1025.2 0.6 79
2020-02-15 17:00:00 14.1 10 Sudoeste 22 Sur 0 1025.2 0.4 78
2020-02-15 16:00:00 14.4 12 Sur 22 Sudoeste 0 1024.7 -0.4 77
2020-02-15 15:00:00 15 14 Sudoeste 22 Sudoeste 0 1024.6 -1 76
2020-02-15 14:00:00 15.9 14 Sudoeste 22 Sudoeste 0 1024.8 -0.7 74
2020-02-15 13:00:00 15.8 14 Sudoeste 21 Sudoeste 0 1025.1 -0.4 74
2020-02-15 12:00:00 15.4 12 Sudoeste 17 Sudoeste 0 1025.6 0.8 74
2020-02-15 11:00:00 14.9 10 Sudoeste 17 Sudoeste 0 1025.5 1.2 77
2020-02-15 10:00:00 13.8 8 Sudoeste 13 Sudoeste 0 1025.5 1.8 81
2020-02-15 09:00:00 12 0 Calma 8 Sudoeste 0 1024.8 1.4 89
2020-02-15 08:00:00 9.6 4 Noroeste 8 Sudeste 0 1024.3 1.1 91
2020-02-15 07:00:00 9.1 5 Noroeste 11 Norte 0 1023.7 0.6 90
2020-02-15 06:00:00 7.8 8 Norte 11 Norte 0 1023.4 -0.2 91
2020-02-15 05:00:00 7.2 6 Noroeste 8 Norte 0 1023.2 -0.5 90
2020-02-15 04:00:00 7.8 0 Calma 8 Noroeste 0 1023.1 -0.7 90
2020-02-15 03:00:00 8 4 Norte 8 Norte 0 1023.6 -0.1 90
2020-02-15 02:00:00 8.7 5 Noroeste -- -- 0 1023.7 -0.2 90
2020-02-15 01:00:00 8.4 4 Noroeste 5 Oeste 0 1023.8 0.1 91
2020-02-15 00:00:00 9.5 3 Noroeste 8 Noroeste 0 1023.7 0.2 89
2020-02-14 23:00:00 9.2 3 Noroeste 11 Noroeste 0 1023.9 0.4 88
2020-02-14 22:00:00 10.1 4 Norte 9 Noroeste 0 1023.7 0.8 85
2020-02-14 21:00:00 10.6 6 Noroeste 11 Noroeste 0 1023.5 1 82
2020-02-14 20:00:00 11.6 8 Norte 9 Norte 0 1023.5 1 81
2020-02-14 19:00:00 13.5 8 Este 11 Este 0 1022.9 0.4 84
2020-02-14 18:00:00 15.2 9 Este 21 Este 0 1022.5 -0.2 82
2020-02-14 17:00:00 16.1 14 Este 22 Este 0 1022.5 -0.8 77
2020-02-14 16:00:00 16.7 14 Este 22 Norte 0 1022.5 -1.1 73
2020-02-14 15:00:00 16.9 14 Este 18 Este 0 1022.7 -1.1 76
2020-02-14 14:00:00 17.5 9 Sudoeste 18 Sudoeste 0 1023.3 -0.6 67
2020-02-14 13:00:00 16.7 15 Sudoeste 22 Sudoeste 0 1023.6 0 74
2020-02-14 12:00:00 16.2 12 Sudoeste 21 Sudoeste 0 1023.8 0.5 77
2020-02-14 11:00:00 15.3 13 Sudoeste 21 Sur 0 1023.9 1.2 84
2020-02-14 10:00:00 14.8 5 Sudoeste 9 Sudoeste 0 1023.6 1.8 83
2020-02-14 09:00:00 10.3 0 Calma 8 Noroeste 0 1023.3 1.7 90
2020-02-14 08:00:00 8.3 6 Norte 11 Norte 0 1022.7 1.4 92
2020-02-14 07:00:00 8.6 4 Norte 9 Norte 0 1021.8 0.3 92
2020-02-14 06:00:00 8.8 3 Noroeste 9 Noroeste 0 1021.6 -0.4 93
2020-02-14 05:00:00 9.2 4 Noroeste 9 Norte 0 1021.3 -0.7 93
2020-02-14 04:00:00 8.8 4 Norte 8 Norte 0 1021.5 -0.4 93
2020-02-14 03:00:00 10.7 0 Calma 11 Noroeste 0 1022 0 93
2020-02-14 02:00:00 11.2 9 Noroeste 9 Oeste 0 1022 0.2 92
2020-02-14 01:00:00 11.7 7 Oeste 11 Oeste 0 1021.9 0.3 92
2020-02-14 00:00:00 12.1 9 Oeste 13 Oeste 0 1022 0.4 93
2020-02-13 23:00:00 12.3 9 Oeste 13 Oeste 0 1021.8 0.1 92
2020-02-13 22:00:00 13.6 10 Sudoeste 18 Sudoeste 0 1021.6 0.7 90
2020-02-13 21:00:00 13.9 14 Sudoeste 21 Sudoeste 0 1021.6 1.6 89
2020-02-13 20:00:00 14 11 Sudoeste 21 Sudoeste 0 1021.7 1.8 88
2020-02-13 19:00:00 13.8 15 Sudoeste 24 Sudoeste 0 1020.9 1 87
2020-02-13 18:00:00 14.5 17 Sudoeste 26 Sudoeste 0 1020 -0.2 82
2020-02-13 17:00:00 15.2 17 Sudoeste 26 Sudoeste 0 1019.9 -0.9 80
2020-02-13 16:00:00 15.2 20 Sudoeste 30 Sudoeste 0 1019.9 -1.5 80
2020-02-13 15:00:00 16 23 Sudoeste 30 Sudoeste 0 1020.2 -1.4 74
2020-02-13 14:00:00 16 23 Sudoeste 32 Sudoeste 0 1020.8 -0.6 74
2020-02-13 13:00:00 16 21 Sudoeste 35 Sudoeste 0 1021.4 0.3 74
2020-02-13 12:00:00 16.3 21 Sudoeste 30 Sudoeste 0 1021.6 0.7 66
2020-02-13 11:00:00 14.9 13 Sudoeste 21 Sudoeste 0 1021.4 1 78
2020-02-13 10:00:00 13.2 0 Calma 5 Oeste 0 1021.1 1.1 89
2020-02-13 09:00:00 11 4 Norte -- -- 0 1020.9 0.9 90
2020-02-13 08:00:00 10.6 -- -- -- -- 0 1020.4 0.4 90
2020-02-13 07:00:00 10.6 5 Oeste 8 Oeste 0 1020 0.1 90
2020-02-13 06:00:00 10.8 0 Calma 11 Noroeste 0 1020 -0.3 89
2020-02-13 05:00:00 11.1 6 Noroeste 11 Noroeste 0 1020 -0.8 90
2020-02-13 04:00:00 10.9 3 Oeste 11 Norte 0 1019.9 -1.2 90
2020-02-13 03:00:00 11.6 7 Norte 11 Norte 0 1020.3 -0.8 88
2020-02-13 02:00:00 12.8 9 Norte 11 Norte 0 1020.8 -0.7 87
2020-02-13 01:00:00 13.2 7 Norte 13 Nordeste 0 1021.1 -0.7 88
2020-02-13 00:00:00 13.7 8 Nordeste 15 Este 0 1021.1 -0.3 86
2020-02-12 23:00:00 14 11 Este 21 Nordeste 0 1021.5 0.1 85
2020-02-12 22:00:00 14.1 11 Este 18 Este 0 1021.8 0.6 85
2020-02-12 21:00:00 13.9 12 Este 22 Este 0 1021.4 0.7 85
2020-02-12 20:00:00 13.9 12 Este 18 Este 0 1021.4 0.7 84
2020-02-12 19:00:00 14.3 10 Este 17 Nordeste 0 1021.2 0.2 84
2020-02-12 18:00:00 14.4 12 Este 18 Este 0 1020.7 -0.7 81
2020-02-12 17:00:00 14.9 12 Nordeste 18 Este 0 1020.7 -1.3 78
2020-02-12 16:00:00 15.2 12 Este 18 Norte 0 1021 -1.4 78
2020-02-12 15:00:00 15.8 12 Este 24 Este 0 1021.4 -1.7 77
2020-02-12 14:00:00 15.5 16 Este 28 Este 0 1022 -0.6 78
2020-02-12 13:00:00 16.2 22 Este 33 Este 0 1022.4 0 76
2020-02-12 12:00:00 15.1 19 Este 32 Este 0 1023.1 0.8 79
2020-02-12 11:00:00 14.7 14 Este 24 Este 0 1022.6 0.7 83
2020-02-12 10:00:00 14.1 12 Nordeste 21 Norte 0 1022.4 0.9 87
2020-02-12 09:00:00 12.5 10 Norte 15 Nordeste 0 1022.3 0.8 92
2020-02-12 08:00:00 10.8 5 Norte 8 Norte 0 1021.9 0.4 92
2020-02-12 07:00:00 10.8 4 Nordeste 8 Norte 0 1021.5 0.3 91
2020-02-12 06:00:00 11.4 4 Noroeste 11 Noroeste 0 1021.5 0.2 90
2020-02-12 05:00:00 10.1 6 Norte 11 Este 0 1021.5 0.1 90
2020-02-12 04:00:00 8 3 Norte 8 Oeste 0 1021.2 -0.7 90
2020-02-12 03:00:00 8.8 2 Noroeste 8 Oeste 0 1021.3 -0.9 90
2020-02-12 02:00:00 9.1 0 Calma 11 Norte 0 1021.4 -0.8 89
2020-02-12 01:00:00 9.3 8 Norte 11 Norte 0 1021.9 -0.3 88
2020-02-12 00:00:00 9 0 Calma 13 Norte 0 1022.2 -0.1 88
2020-02-11 23:00:00 10.5 4 Norte 8 Norte 0 1022.2 0.2 87
2020-02-11 22:00:00 10.9 2 Noroeste 9 Noroeste 0 1022.2 1.1 88
2020-02-11 21:00:00 11.7 5 Norte 9 Norte 0 1022.3 1.8 89
2020-02-11 20:00:00 12.3 8 Norte 11 Norte 0 1022 1.8 88
2020-02-11 19:00:00 13.2 4 Sur 11 Sur 0 1021.1 0.6 86
2020-02-11 18:00:00 14.8 8 Sudoeste 18 Sudoeste 0 1020.5 -0.5 83
2020-02-11 17:00:00 15.6 14 Sudoeste 22 Sudoeste 0 1020.2 -1.5 81
2020-02-11 16:00:00 16.3 14 Sudoeste 24 Sudoeste 0 1020.5 -2.2 76
2020-02-11 15:00:00 16.5 18 Sudoeste 30 Sudoeste 0 1021 -2.4 77
2020-02-11 14:00:00 16.6 23 Sudoeste 30 Sudoeste 0 1021.7 -1.7 76
2020-02-11 13:00:00 18.6 22 Sudoeste 28 Oeste 0 1022.7 -0.1 62
2020-02-11 12:00:00 16.6 19 Sudoeste 30 Sudoeste 0 1023.4 0.8 80
2020-02-11 11:00:00 16.2 17 Sudoeste 26 Sudoeste 0 1023.4 0.8 83
2020-02-11 10:00:00 14.6 11 Sudoeste 18 Sudoeste 0 1022.8 0.4 88
2020-02-11 09:00:00 13.4 13 Sudoeste 18 Sudoeste 0 1022.6 0.1 90
2020-02-11 08:00:00 11.6 8 Oeste 11 Oeste 0 1022.6 -0.1 91
2020-02-11 07:00:00 9.3 0 Calma 9 Oeste 0 1022.4 -0.6 89
2020-02-11 06:00:00 8.5 0 Calma 5 Oeste 0 1022.5 -1.4 89
2020-02-11 05:00:00 9.5 0 Calma 8 Oeste 0 1022.7 -1.6 88
2020-02-11 04:00:00 10 5 Noroeste 13 Sudoeste 0 1023 -1.8 87
2020-02-11 03:00:00 12.5 10 Sudoeste 15 Sudoeste 0 1023.9 -1.2 85
2020-02-11 02:00:00 12.8 6 Oeste 15 Sudoeste 0 1024.3 -1 86
2020-02-11 01:00:00 12.4 12 Sudoeste 22 Sudoeste 0 1024.8 -0.4 85
2020-02-11 00:00:00 13.9 13 Sudoeste 18 Sudoeste 0 1025.1 0.1 80
2020-02-10 23:00:00 13.8 14 Sudoeste 28 Sudoeste 0 1025.3 0 80
2020-02-10 22:00:00 14.2 22 Sudoeste 32 Sudoeste 0 1025.2 -0.1 78
2020-02-10 21:00:00 14 21 Sudoeste 28 Sudoeste 0 1025 -0.5 80
2020-02-10 20:00:00 14.5 18 Sudoeste 33 Sudoeste 0 1025.3 -0.4 75
2020-02-10 19:00:00 14.5 22 Oeste 30 Sudoeste 0 1025.3 -0.8 75
2020-02-10 18:00:00 15.2 16 Sudoeste 24 Sudoeste 0 1025.5 -1 74
2020-02-10 17:00:00 16.2 15 Sudoeste 28 Oeste 0 1025.7 -1.5 71
2020-02-10 16:00:00 16.1 21 Sudoeste 35 Sudoeste 0 1026.1 -2.1 70
2020-02-10 15:00:00 16.2 25 Sudoeste 33 Oeste 0 1026.5 -2.3 71
2020-02-10 14:00:00 16.1 26 Sudoeste 39 Sudoeste 0 1027.2 -1.6 72
2020-02-10 13:00:00 16.1 31 Sudoeste 37 Sudoeste 0 1028.2 -0.5 73
2020-02-10 12:00:00 16 27 Sudoeste 41 Oeste 0 1028.8 0.2 77
2020-02-10 11:00:00 15.6 30 Sudoeste 41 Oeste 0 1028.8 0.6 77
2020-02-10 10:00:00 14.9 25 Sudoeste 35 Sudoeste 0 1028.7 0.9 80
2020-02-10 09:00:00 13.9 22 Sudoeste 35 Oeste 0 1028.6 0.9 84
2020-02-10 08:00:00 13.4 23 Sudoeste 35 Sudoeste 0 1028.2 0.7 86
2020-02-10 07:00:00 13.3 23 Sudoeste 32 Sudoeste 0 1027.8 -0.2 85
2020-02-10 06:00:00 13.5 24 Sudoeste 30 Sudoeste 0 1027.7 -0.8 87
2020-02-10 05:00:00 13.3 17 Sudoeste 24 Sudoeste 0 1027.5 -1.7 88
2020-02-10 04:00:00 13.2 18 Sudoeste 28 Sudoeste 0 1028 -1.6 86
2020-02-10 03:00:00 12.9 15 Sudoeste 24 Sudoeste 0 1028.5 -1.2 88
2020-02-10 02:00:00 13 13 Sudoeste 24 Sudoeste 0 1029.2 -0.8 87
2020-02-10 01:00:00 13.6 18 Sudoeste 24 Sudoeste 0 1029.6 0.3 87
2020-02-10 00:00:00 13.2 17 Sudoeste 24 Sudoeste 0 1029.7 0.2 87
2020-02-09 23:00:00 12.9 13 Sudoeste 18 Sudoeste 0 1030 0.5 88
2020-02-09 22:00:00 12.7 13 Sudoeste 17 Sudoeste 0 1029.3 0.6 87
2020-02-09 21:00:00 12.4 12 Sudoeste 15 Sudoeste 0 1029.5 1.5 89
2020-02-09 20:00:00 12.6 10 Sudoeste 17 Sudoeste 0 1029.5 1.7 87
2020-02-09 19:00:00 12.3 8 Oeste 13 Oeste 0 1028.7 1.2 86
2020-02-09 18:00:00 14.1 9 Sudoeste 13 Sudoeste 0 1028 0.3 80
2020-02-09 17:00:00 15.2 9 Sudoeste 17 Sudoeste 0 1027.8 -0.5 76
2020-02-09 16:00:00 15.8 12 Sudoeste 18 Sudoeste 0 1027.5 -1.2 77
2020-02-09 15:00:00 16.1 11 Sudoeste 18 Sudoeste 0 1027.7 -1.3 73
2020-02-09 14:00:00 16 12 Sudoeste 18 Sudoeste 0 1028.3 -0.6 72
2020-02-09 13:00:00 16.8 7 Este 13 Este 0 1028.7 0.2 69
2020-02-09 12:00:00 16.2 5 Sudoeste 11 Sur 0 1029 1.3 72
2020-02-09 11:00:00 14.9 4 Este 11 Este 0 1028.9 2.1 86
2020-02-09 10:00:00 12.6 5 Nordeste 9 Norte 0 1028.5 2.3 92
2020-02-09 09:00:00 10 0 Calma 13 Oeste 0 1027.7 2 92
2020-02-09 08:00:00 10.2 4 Norte 9 Este 0 1026.8 1.7 92
2020-02-09 07:00:00 10.7 6 Nordeste 9 Nordeste 0 1026.2 1.2 92
2020-02-09 06:00:00 11.8 7 Norte 13 Norte 0 1025.7 0.6 92
2020-02-09 05:00:00 10.5 5 Norte 9 Nordeste 0 1025.1 0.3 92
2020-02-09 04:00:00 9.7 8 Nordeste -- -- 0 1025 -0.2 91
2020-02-09 03:00:00 10.7 3 Nordeste 9 Norte 0 1025.1 -0.4 91
2020-02-09 02:00:00 9.5 6 Nordeste 9 Nordeste 0 1024.8 -0.5 91
2020-02-09 01:00:00 8.8 7 Norte -- -- 0 1025.2 0 91
2020-02-09 00:00:00 8.6 3 Norte 9 Norte 0 1025.5 0.7 91
2020-02-08 23:00:00 8.4 0 Calma 8 Oeste 0 1025.3 1.1 89
2020-02-08 22:00:00 9.2 4 Noroeste 13 Noroeste 0 1025.2 1.9 88
2020-02-08 21:00:00 9.1 0 Calma 9 Norte 0 1024.8 1.8 88
2020-02-08 20:00:00 10.1 2 Noroeste 11 Norte 0 1024.2 1.7 85
2020-02-08 19:00:00 11.5 5 Oeste 13 Sudoeste 0 1023.3 0.8 83
2020-02-08 18:00:00 13.1 11 Sudoeste 18 Oeste 0 1023 0.4 79
2020-02-08 17:00:00 14.1 13 Sudoeste 22 Sudoeste 0 1022.5 -0.4 75
2020-02-08 16:00:00 14.4 15 Sudoeste 22 Sudoeste 0 1022.5 -1 72
2020-02-08 15:00:00 14.8 16 Sudoeste 22 Sudoeste 0 1022.6 -1.5 68
2020-02-08 14:00:00 15 16 Sudoeste 24 Sudoeste 0 1022.9 -1.3 69
2020-02-08 13:00:00 14.7 17 Sudoeste 30 Sudoeste 0 1023.5 -0.5 70
2020-02-08 12:00:00 14.2 15 Sudoeste 22 Sudoeste 0 1024.1 0.7 73
2020-02-08 11:00:00 13.4 15 Sudoeste 22 Sudoeste 0 1024.2 1.2 77
2020-02-08 10:00:00 13.2 16 Sudoeste 24 Sudoeste 0 1024 1.4 79
2020-02-08 09:00:00 11.2 3 Noroeste 15 Oeste 0 1023.4 1.2 84
2020-02-08 08:00:00 9.5 4 Norte 9 Noroeste 0 1023 0.7 87
2020-02-08 07:00:00 9 10 Noroeste 11 Noroeste 0 1022.6 0.1 87
2020-02-08 06:00:00 8.8 5 Nordeste 8 Norte 0 1022.2 -0.2 86
2020-02-08 05:00:00 8.6 3 Norte 11 Norte 0 1022.3 -0.2 86
2020-02-08 04:00:00 9.6 9 Noroeste 13 Oeste 0 1022.5 -0.1 81
2020-02-08 03:00:00 10.8 11 Oeste 13 Oeste 0 1022.4 -0.2 81
2020-02-08 02:00:00 10.8 4 Sur 5 Sur 0 1022.5 0 85
2020-02-08 01:00:00 10.3 0 Calma 8 Noroeste 0 1022.6 -0.1 85
2020-02-08 00:00:00 9.4 2 Noroeste 9 Norte 0 1022.6 0 86
2020-02-07 23:00:00 9.2 6 Norte 9 Oeste 0 1022.5 0.2 84
2020-02-07 22:00:00 10.2 7 Noroeste 15 Noroeste 0 1022.7 0.7 82
2020-02-07 21:00:00 11.4 6 Noroeste 9 Norte 0 1022.6 1.1 79
2020-02-07 20:00:00 12.3 4 Norte 5 Norte 0 1022.3 1 76
2020-02-07 19:00:00 12.5 6 Este 11 Este 0 1022 0.9 76
2020-02-07 18:00:00 13.2 9 Nordeste 15 Este 0 1021.5 0.3 72
2020-02-07 17:00:00 14 10 Este 17 Este 0 1021.3 -0.2 70
2020-02-07 16:00:00 14.6 13 Este 21 Este 0 1021.1 -1.1 68
2020-02-07 15:00:00 14.7 14 Este 21 Este 0 1021.2 -1.9 66
2020-02-07 14:00:00 15 13 Este 18 Este 0 1021.5 -1.7 66
2020-02-07 13:00:00 14.6 12 Nordeste 17 Este 0 1022.2 -0.7 66
2020-02-07 12:00:00 14.9 11 Este 17 Este 0 1023.1 0.4 65
2020-02-07 11:00:00 14.4 8 Nordeste 13 Nordeste 0 1023.2 0.6 68
2020-02-07 10:00:00 12.4 0 Calma 5 Norte 0 1022.9 0.6 78
2020-02-07 09:00:00 9.8 0 Calma 9 Norte 0 1022.7 0.2 81
2020-02-07 08:00:00 7.8 7 Noroeste 13 Norte 0 1022.6 -0.1 83
2020-02-07 07:00:00 8 6 Norte 9 Norte 0 1022.3 -0.5 81
2020-02-07 06:00:00 8.2 3 Norte 11 Norte 0 1022.5 -0.8 82
2020-02-07 05:00:00 8.9 5 Norte 9 Norte 0 1022.7 -1.1 79
2020-02-07 04:00:00 8.1 5 Norte 11 Norte 0 1022.8 -1.3 81
2020-02-07 03:00:00 8.4 9 Norte 11 Norte 0 1023.3 -1.1 79
2020-02-07 02:00:00 9.2 9 Norte 11 Norte 0 1023.8 -0.6 78
2020-02-07 01:00:00 9.7 3 Norte 13 Este 0 1024.1 -0.3 73
2020-02-07 00:00:00 11.1 9 Sudeste 15 Este 0 1024.4 0 68
2020-02-06 23:00:00 11.7 10 Sudeste 22 Este 0 1024.4 -0.1 64
2020-02-06 22:00:00 12.1 14 Sudeste 26 Sudeste 0 1024.4 0.1 62
2020-02-06 21:00:00 12.5 16 Este 24 Este 0 1024.4 0.7 63
2020-02-06 20:00:00 12.2 14 Este 22 Este 0 1024.5 0.6 64
2020-02-06 19:00:00 11.9 11 Este 24 Este 0 1024.3 0.3 63
2020-02-06 18:00:00 12.5 12 Este 21 Norte 0 1023.7 -1 63
2020-02-06 17:00:00 13.9 13 Este 18 Este 0 1023.9 -1.6 57
2020-02-06 16:00:00 14.3 11 Este 21 Este 0 1024 -2.2 53
2020-02-06 15:00:00 14.9 11 Este 21 Este 0 1024.7 -2.4 53
2020-02-06 14:00:00 15 11 Sudeste 22 Sudeste 0 1025.5 -- 50
2020-02-06 13:00:00 15 11 Sudeste 22 Sudeste 0 1026.2 -0.5 49
2020-02-06 12:00:00 15.1 9 Sudeste -- -- -- 1027.1 0.8 49
2020-02-06 11:00:00 -- -- -- -- -- -- -- -- --
2020-02-06 10:00:00 11.7 0 Calma 8 Norte 0 1026.7 0.9 88
2020-02-06 09:00:00 8.2 0 Calma 9 Este 0 1026.3 0.5 92
2020-02-06 08:00:00 4.9 3 Norte 8 Noroeste 0 1026.1 0.3 92
2020-02-06 07:00:00 5 4 Norte 9 Noroeste 0 1025.8 -0.4 92
2020-02-06 06:00:00 5.5 6 Norte 8 Norte 0 1025.8 -0.7 92
2020-02-06 05:00:00 6 5 Norte 8 Norte 0 1025.8 -0.5 92
2020-02-06 04:00:00 5.5 6 Norte 9 Norte 0 1026.2 -0.4 91
2020-02-06 03:00:00 6.9 -- -- -- -- 0 1026.5 -0.2 91
2020-02-06 02:00:00 6.8 5 Norte 9 Norte 0 1026.3 -0.4 90
2020-02-06 01:00:00 6.3 3 Norte 8 Norte 0 1026.6 -0.1 88
2020-02-06 00:00:00 6.8 7 Norte 9 Norte 0 1026.7 0.1 88
2020-02-05 23:00:00 7.4 6 Noroeste 11 Oeste 0 1026.7 0.2 86
2020-02-05 22:00:00 7.8 5 Norte 13 Noroeste 0 1026.7 0.5 85
2020-02-05 21:00:00 8 2 Nordeste 9 Noroeste 0 1026.6 0.8 83
2020-02-05 20:00:00 9.1 6 Noroeste 11 Noroeste 0 1026.5 0.8 80
2020-02-05 19:00:00 10.8 5 Sur 13 Sur 0 1026.2 0 77
2020-02-05 18:00:00 13.2 5 Sudoeste 21 Oeste 0 1025.8 -0.7 68
2020-02-05 17:00:00 13.6 9 Norte 18 Este 0 1025.7 -1.4 64
2020-02-05 16:00:00 14 9 Nordeste 26 Este 0 1026.2 -1.4 60
2020-02-05 15:00:00 14.2 19 Este 30 Este 0 1026.5 -1.7 67
2020-02-05 14:00:00 14.1 22 Este 33 Este 0 1027.1 -1.2 65
2020-02-05 13:00:00 14.5 21 Nordeste 30 Este 0 1027.6 -0.4 64
2020-02-05 12:00:00 14.7 18 Este 28 Nordeste 0 1028.2 0.5 67
2020-02-05 11:00:00 14.6 18 Este 30 Este 0 1028.3 1 67
2020-02-05 10:00:00 13.4 15 Nordeste 24 Nordeste 0 1028 1.2 68
2020-02-05 09:00:00 12.3 14 Nordeste 24 Norte 0 1027.7 0.7 72
2020-02-05 08:00:00 10.6 10 Norte 13 Norte 0 1027.3 0.5 76
2020-02-05 07:00:00 10.7 6 Norte 21 Este 0 1026.8 0.2 73
2020-02-05 06:00:00 12 14 Nordeste 24 Este 0 1027 0.5 67
2020-02-05 05:00:00 12.6 14 Nordeste 30 Este 0 1026.8 0.5 63
2020-02-05 04:00:00 13.3 22 Este 37 Sudeste 0 1026.6 0.5 62
2020-02-05 03:00:00 13.3 25 Este 37 Este 0 1026.5 1.2 63
2020-02-05 02:00:00 13.7 22 Este 39 Este 0 1026.3 1.8 66
2020-02-05 01:00:00 13.9 27 Este 42 Este 0 1026.1 2.2 70
2020-02-05 00:00:00 14 24 Nordeste 42 Nordeste 0 1025.3 2.6 59
2020-02-04 23:00:00 14.7 26 Nordeste 41 Nordeste 0 1024.5 2.4 52
2020-02-04 22:00:00 15.2 16 Nordeste 35 Norte 0 1023.9 2.4 54
2020-02-04 21:00:00 17.5 19 Nordeste 32 Norte 0 1022.7 2.1 46
2020-02-04 20:00:00 18.2 18 Norte 30 Norte 0 1022.1 2.1 46
2020-02-04 19:00:00 18.4 5 Noroeste 26 Norte 0 1021.5 1.5 42
2020-02-04 18:00:00 19.7 8 Norte 24 Noroeste 0 1020.6 -0.1 39
2020-02-04 12:00:00 19.2 7 Sudoeste 22 Sur 0 1022.7 -0.3 59
2020-02-04 11:00:00 19.2 13 Sudoeste 21 Oeste 0 1022.4 -0.3 56
2020-02-04 10:00:00 18 13 Oeste 22 Oeste 0 1022.8 0.5 54
2020-02-04 09:00:00 15.1 12 Sudoeste 21 Oeste 0 1023 0.7 74
2020-02-04 08:00:00 14.4 15 Sudoeste 28 Sudoeste 0 1022.7 -0.1 82
2020-02-04 07:00:00 14.1 16 Sudoeste 28 Sudoeste 0 1022.3 -1 84
2020-02-04 06:00:00 14.1 23 Sudoeste 30 Sudoeste 0 1022.3 -1.6 85
2020-02-04 05:00:00 13.1 22 Oeste 28 Sudoeste 0 1022.8 -1.5 88
2020-02-04 04:00:00 13.5 23 Sudoeste 28 Oeste 0 1023.3 -1.5 81
2020-02-04 03:00:00 13 18 Sudoeste 22 Sudoeste 0 1023.9 -1.4 88
2020-02-04 02:00:00 13.5 17 Sudoeste 22 Sudoeste 0 1024.3 -1.5 84
2020-02-04 01:00:00 13 14 Sudoeste 18 Sudoeste 0 1024.8 -1.3 85
2020-02-04 00:00:00 10.8 12 Sudoeste 13 Oeste 0 1025.3 -0.8 87
2020-02-03 23:00:00 11.9 8 Oeste 13 Sudoeste 0 1025.8 0 86
2020-02-03 22:00:00 12.6 10 Sudoeste 15 Sudoeste 0 1026.1 0.5 85
2020-02-03 21:00:00 12.4 14 Sudoeste 17 Sudoeste 0 1026.1 0.8 82
2020-02-03 20:00:00 12.8 9 Sudoeste 13 Sudoeste 0 1025.8 0.5 89
2020-02-03 19:00:00 14 11 Sudoeste 13 Sudoeste 0 1025.6 0 90
2020-02-03 18:00:00 15.6 11 Sudoeste 17 Sudoeste 0 1025.3 -0.4 85
2020-02-03 17:00:00 17.2 11 Sudoeste 18 Sudoeste 0 1025.3 -1 75
2020-02-03 16:00:00 17.5 14 Sudoeste 18 Sudoeste 0 1025.6 -1.5 72
2020-02-03 15:00:00 17.3 14 Sudoeste 18 Sudoeste 0 1025.7 -1.8 78
2020-02-03 14:00:00 17.1 14 Sudoeste 22 Sudoeste 0 1026.3 -1.3 75
2020-02-03 13:00:00 17.8 13 Sudoeste 18 Sudoeste 0 1027.1 -0.2 75
2020-02-03 12:00:00 18.3 6 Sur 9 Sur 0 1027.5 0.3 76
2020-02-03 11:00:00 16.7 5 Este 13 Este 0 1027.6 1 84
2020-02-03 10:00:00 15 8 Sur 11 Sur 0 1027.3 1.3 92
2020-02-03 09:00:00 10.6 6 Norte 9 Oeste 0 1027.2 1.4 93
2020-02-03 08:00:00 9.5 7 Oeste 9 Oeste 0 1026.6 0.8 93
2020-02-03 07:00:00 11.3 5 Sudoeste 13 Sudoeste 0 1026 0 93
2020-02-03 06:00:00 10.7 5 Oeste 13 Sudoeste 0 1025.8 -0.5 93
2020-02-03 05:00:00 10.4 9 Sudoeste 9 Oeste 0 1025.8 -0.8 92
2020-02-03 04:00:00 10.6 8 Oeste 11 Oeste 0 1026 -1 92
2020-02-03 03:00:00 11.4 9 Oeste 9 Oeste 0 1026.3 -0.5 92
2020-02-03 02:00:00 11.9 -- -- -- -- 0 1026.6 -0.4 91
2020-02-03 01:00:00 10.6 10 Oeste 13 Oeste 0 1027 -0.1 89
2020-02-03 00:00:00 11 10 Oeste 11 Sudoeste 0 1026.8 0 90
2020-02-02 23:00:00 11.5 9 Oeste -- -- 0 1027 0.4 91
2020-02-02 22:00:00 11.5 6 Oeste 9 Oeste 0 1027.1 0.8 91
2020-02-02 21:00:00 11.8 9 Oeste 11 Oeste 0 1026.8 0.7 91
2020-02-02 20:00:00 12.6 5 Oeste 13 Sudoeste 0 1026.6 0.8 91
2020-02-02 19:00:00 13.6 10 Sudoeste 15 Sudoeste 0 1026.3 0.7 90
2020-02-02 18:00:00 15 12 Sudoeste 21 Sudoeste 0 1026.1 0.7 88
2020-02-02 17:00:00 15.8 15 Sudoeste 21 Sudoeste 0 1025.8 0.1 85
2020-02-02 16:00:00 17.2 13 Sudoeste 22 Sudoeste 0 1025.6 -0.9 76
2020-02-02 15:00:00 17.2 17 Sudoeste 22 Sudoeste 0 1025.4 -1.7 78
2020-02-02 14:00:00 17.8 16 Sudoeste 22 Sudoeste 0 1025.7 -1.5 71
2020-02-02 13:00:00 17.7 16 Sudoeste 24 Sudoeste 0 1026.5 -0.3 74
2020-02-02 12:00:00 17.9 13 Sudoeste 21 Sudoeste 0 1027.1 0.8 65
2020-02-02 11:00:00 17.7 14 Sudoeste 24 Sudoeste 0 1027.2 2.2 68
2020-02-02 10:00:00 17.7 8 Sudoeste 17 Sudoeste 0 1026.8 2.1 69
2020-02-02 09:00:00 14.9 8 Oeste 17 Sudoeste 0 1026.3 1.9 80
2020-02-02 08:00:00 10.9 4 Sur 9 Oeste 0 1025 0.8 88
2020-02-02 07:00:00 12.1 2 Oeste 8 Sur 0 1024.7 0.2 87
2020-02-02 06:00:00 11.9 4 Sudoeste 11 Oeste 0 1024.4 -0.1 90
2020-02-02 05:00:00 11.8 8 Sur 9 Sudoeste 0 1024.2 -0.2 91
2020-02-02 04:00:00 10.2 0 Calma 5 Sur 0 1024.5 0.2 92
2020-02-02 03:00:00 10.5 0 Calma 5 Sur 0 1024.5 0.3 92
2020-02-02 02:00:00 11.5 3 Sudoeste 11 Oeste 0 1024.4 0.4 91
2020-02-02 01:00:00 11.3 7 Oeste 11 Sudoeste 0 1024.3 0.2 91
2020-02-02 00:00:00 11.9 11 Sudoeste 13 Sudoeste 0 1024.2 0.5 90
2020-02-01 23:00:00 12.5 10 Sudoeste 13 Sudoeste 0 1024 1.1 89
2020-02-01 22:00:00 12.1 9 Sudoeste 11 Sudoeste 0 1024.1 2 90
2020-02-01 21:00:00 12.2 5 Oeste 13 Sudoeste 0 1023.7 2.4 89
2020-02-01 20:00:00 13.7 8 Sudoeste 17 Sudoeste 0 1022.9 1.9 88
2020-02-01 19:00:00 14.6 11 Sudoeste 17 Sudoeste 0 1022.1 1.2 87
2020-02-01 18:00:00 15.5 13 Sudoeste 22 Sudoeste 0 1021.3 0.6 81
2020-02-01 17:00:00 16.7 16 Sudoeste 30 Sudoeste 0 1021 0.6 74
2020-02-01 16:00:00 17.6 18 Sur 28 Sur 0 1020.9 0.2 71
2020-02-01 15:00:00 18 16 Sudoeste 32 Sudoeste 0 1020.7 -0.1 70
2020-02-01 14:00:00 16.8 20 Sur 28 Sur 0 1020.4 -0.4 79
2020-02-01 13:00:00 15.8 22 Sudoeste 32 Sudoeste 0 1020.7 0.2 81
2020-02-01 12:00:00 15.8 24 Oeste 32 Oeste 0 1020.8 0.5 80
2020-02-01 11:00:00 15.1 20 Sudoeste 28 Sudoeste 0 1020.8 1.2 82
2020-02-01 10:00:00 15.3 17 Sudoeste 28 Sudoeste 0 1020.5 1.3 81
2020-02-01 09:00:00 14.4 16 Sudoeste 26 Oeste 0 1020.3 1.1 81
2020-02-01 08:00:00 11.3 4 Oeste 17 Oeste 0 1019.6 0.4 85
2020-02-01 07:00:00 11.9 8 Sudoeste 15 Sudoeste 0 1019.2 -0.3 85
2020-02-01 06:00:00 12.5 9 Sudoeste 17 Sudoeste 0 1019.2 -0.6 84
2020-02-01 05:00:00 12.5 13 Sudoeste 17 Sudoeste 0 1019.2 -0.9 81
2020-02-01 04:00:00 11.2 9 Sudoeste 17 Oeste 0 1019.5 -0.8 89
2020-02-01 03:00:00 8.7 4 Oeste 15 Sudoeste 0 1019.8 -0.5 91
2020-02-01 02:00:00 9.4 0 Calma -- -- 0 1020.1 -0.5 90
2020-02-01 01:00:00 10.8 7 Sudoeste 9 Oeste 0 1020.3 -0.4 91
2020-02-01 00:00:00 11.4 9 Sudoeste 17 Oeste 0 1020.3 -0.4 91
2020-01-31 23:00:00 12.4 6 Oeste 22 Oeste 0 1020.6 0.1 90
2020-01-31 22:00:00 12.6 10 Oeste 13 Oeste 0 1020.7 0.6 89
2020-01-31 21:00:00 13.3 8 Oeste 17 Sudoeste 0 1020.7 1 84
2020-01-31 20:00:00 13.5 14 Oeste 18 Oeste 0 1020.5 0.9 80
2020-01-31 19:00:00 14.2 10 Sudoeste 18 Oeste 0 1020.1 0.6 70
2020-01-31 18:00:00 16.4 15 Oeste 26 Oeste 0 1019.7 0.2 61
2020-01-31 17:00:00 17.9 18 Oeste 30 Oeste 0 1019.6 -0.4 55
2020-01-31 16:00:00 18.5 21 Oeste 32 Noroeste 0 1019.5 -1.1 51
2020-01-31 15:00:00 18.2 24 Oeste 37 Oeste 0 1019.5 -1.8 52
2020-01-31 14:00:00 18.1 27 Oeste 35 Oeste 0 1020 -1.4 53
2020-01-31 13:00:00 17.9 22 Oeste 37 Oeste 0 1020.6 -0.3 55
2020-01-31 12:00:00 17.2 23 Oeste 39 Oeste 0 1021.3 0.7 57
2020-01-31 11:00:00 16.5 25 Noroeste 41 Noroeste 0 1021.4 1.3 61
2020-01-31 10:00:00 15.5 22 Noroeste 32 Noroeste 0 1020.9 1.3 64
2020-01-31 09:00:00 14.5 14 Noroeste 26 Oeste 0 1020.6 1.3 67
2020-01-31 08:00:00 14.2 15 Oeste 24 Noroeste 0 1020.1 1.1 67
2020-01-31 07:00:00 12.9 10 Sudoeste 15 Oeste 0 1019.6 0.2 71
2020-01-31 06:00:00 13.1 10 Oeste 21 Noroeste 0 1019.3 -0.4 71
2020-01-31 05:00:00 14 6 Noroeste 18 Noroeste 0 1019 0.1 69
2020-01-31 04:00:00 13.7 4 Sudoeste 28 Noroeste 0 1019.4 0 68
2020-01-31 03:00:00 14.2 10 Noroeste 32 Oeste 0 1019.7 0 67
2020-01-31 02:00:00 15 22 Oeste 45 Oeste 0 1018.9 -1 62
2020-01-31 01:00:00 15.5 27 Oeste 42 Oeste 0 1019.4 -0.2 58
2020-01-31 00:00:00 15.4 27 Oeste 46 Oeste 0 1019.7 -0.1 62
2020-01-30 23:00:00 13.9 12 Sudoeste 22 Sudoeste 0 1019.9 0.3 87
2020-01-30 22:00:00 13.7 17 Sudoeste 22 Sur 0 1019.6 0.2 86
2020-01-30 21:00:00 13.5 11 Sudoeste 18 Sudoeste 0 1019.8 1.1 85
2020-01-30 20:00:00 13.6 14 Sudoeste 18 Sudoeste 0 1019.6 1 82
2020-01-30 19:00:00 13.8 12 Sudoeste 21 Sudoeste 0 1019.4 0.7 82
2020-01-30 18:00:00 14.3 16 Sudoeste 24 Sudoeste 0 1018.7 -0.4 80
2020-01-30 17:00:00 15.1 18 Sudoeste 26 Sudoeste 0 1018.6 -1.1 77
2020-01-30 16:00:00 15.8 17 Sudoeste 24 Sudoeste 0 1018.7 -1.7 80
2020-01-30 15:00:00 16.1 19 Sudoeste 26 Sudoeste 0 1019.1 -2.1 73
2020-01-30 14:00:00 16.3 21 Sudoeste 33 Sudoeste 0 1019.7 -1.7 73
2020-01-30 13:00:00 17.2 17 Sudoeste 28 Sudoeste 0 1020.4 -0.7 63
2020-01-30 12:00:00 15.7 18 Sudoeste 26 Sudoeste 0 1021.2 0.6 77
2020-01-30 11:00:00 15.2 14 Sudoeste 22 Sudoeste 0 1021.4 1.3 81
2020-01-30 10:00:00 15.3 13 Sudoeste 21 Sudoeste 0 1021.1 1.1 81
2020-01-30 09:00:00 13.9 15 Sudoeste 26 Sudoeste 0 1020.6 1 72
2020-01-30 08:00:00 14.3 15 Sudoeste 30 Oeste 0 1020.1 0.8 66
2020-01-30 07:00:00 14.7 20 Oeste 30 Oeste 0 1020 0.1 64
2020-01-30 06:00:00 13.9 15 Oeste 28 Oeste 0 1019.6 -0.7 69
2020-01-30 05:00:00 14.2 17 Oeste 24 Oeste 0 1019.3 -1.3 70
2020-01-30 04:00:00 12.2 11 Oeste 18 Oeste 0 1019.9 -1.2 86
2020-01-30 03:00:00 11.4 10 Sudoeste 15 Sur 0 1020.3 -1 91
2020-01-30 02:00:00 11.4 5 Oeste 9 Oeste 0 1020.6 -1 90
2020-01-30 01:00:00 12.3 8 Oeste 15 Oeste 0 1021.1 -0.6 90
2020-01-30 00:00:00 12.4 10 Oeste 18 Noroeste 0 1021.3 -0.4 91
2020-01-29 23:00:00 12.2 5 Oeste 13 Sudoeste 0 1021.6 0.4 92
2020-01-29 22:00:00 11.9 8 Sudoeste 11 Sudoeste 0 1021.7 0.8 91
2020-01-29 21:00:00 11.9 11 Sudoeste 13 Sudoeste 0 1021.7 1.5 90
2020-01-29 20:00:00 13 8 Sudoeste 13 Sudoeste 0 1021.2 1.3 89
2020-01-29 19:00:00 13.4 11 Sudoeste 15 Sudoeste 0 1020.9 1.2 88
2020-01-29 18:00:00 14.4 13 Sudoeste 24 Oeste 0 1020.2 0.6 84
2020-01-29 17:00:00 15.1 19 Sudoeste 26 Sudoeste 0 1019.9 0 81
2020-01-29 16:00:00 15.7 18 Sudoeste 28 Sudoeste 0 1019.7 -1.3 80
2020-01-29 15:00:00 17.2 15 Sudoeste 26 Sudoeste 0 1019.6 -1.9 66
2020-01-29 14:00:00 17.5 14 Sudoeste 22 Sudoeste 0 1019.9 -1.2 67
2020-01-29 13:00:00 17.1 16 Sudoeste 26 Oeste 0 1021 0 66
2020-01-29 12:00:00 16.5 17 Sudoeste 24 Sudoeste 0 1021.5 1 71
2020-01-29 11:00:00 15.6 14 Sudoeste 26 Sudoeste 0 1021.1 0.9 76
2020-01-29 10:00:00 15.3 19 Oeste 28 Oeste 0 1021 1.5 73
2020-01-29 09:00:00 14.4 19 Oeste 32 Oeste 0 1020.5 1.5 69
2020-01-29 08:00:00 14.5 19 Oeste 33 Oeste 0 1020.2 1.1 66
2020-01-29 07:00:00 15.2 26 Oeste 41 Oeste 0 1019.5 0.5 61
2020-01-29 06:00:00 14.7 22 Oeste 33 Oeste 0 1019 -0.1 63
2020-01-29 05:00:00 15 24 Oeste 41 Oeste 0 1019.1 -0.1 62
2020-01-29 04:00:00 15.1 24 Oeste 37 Oeste 0 1019 -0.6 62
2020-01-29 03:00:00 15.2 24 Oeste 45 Oeste 0 1019.1 -0.7 62
2020-01-29 02:00:00 15.4 26 Oeste 37 Oeste 0 1019.2 -0.6 61
2020-01-29 01:00:00 14.9 26 Oeste 35 Oeste 0 1019.6 -0.3 66
2020-01-29 00:00:00 14.1 22 Oeste 33 Oeste 0 1019.8 0.1 79
2020-01-28 23:00:00 14.1 26 Sudoeste 37 Oeste 0 1019.8 0.2 79
2020-01-28 22:00:00 14.2 21 Sudoeste 33 Sudoeste 0 1019.9 0.5 79
2020-01-28 21:00:00 14.2 19 Sudoeste 37 Oeste 0 1019.7 0.7 77
2020-01-28 20:00:00 14.3 24 Oeste 41 Oeste 0 1019.6 0.6 74
2020-01-28 19:00:00 14.3 25 Oeste 39 Sudoeste 0 1019.4 0.8 77
2020-01-28 18:00:00 14.6 17 Oeste 26 Sudoeste 0 1019 0 70
2020-01-28 17:00:00 15 23 Sudoeste 37 Sudoeste 0 1019 -0.1 70
2020-01-28 16:00:00 15.4 20 Sudoeste 33 Sur 0 1018.6 -1.1 72
2020-01-28 15:00:00 14.9 22 Sudoeste 42 Oeste 0 1019 -1 73
2020-01-28 14:00:00 17.3 35 Oeste 48 Oeste 0 1019.1 -- 55
2020-01-28 13:00:00 16.7 30 Sudoeste 46 Sudoeste 0 1019.7 0.4 58
2020-01-28 12:00:00 15.9 37 Sudoeste 50 Oeste 0 1020 0.8 69
2020-01-28 11:00:00 -- -- -- -- -- -- -- -- --
2020-01-28 10:00:00 15.3 38 Oeste 52 Oeste 0 1019.3 0.6 61
2020-01-28 09:00:00 14 27 Oeste 42 Oeste 0 1019.2 0.5 67
2020-01-28 08:00:00 13 19 Oeste 42 Oeste 0 1018.9 0.5 68
2020-01-28 07:00:00 13.5 33 Oeste 45 Oeste 0 1018.7 -0.2 66
2020-01-28 06:00:00 13.6 28 Oeste 41 Oeste 0 1018.7 -0.5 64
2020-01-28 05:00:00 13.6 35 Oeste 48 Oeste 0 1018.4 -1.1 65
2020-01-28 04:00:00 13.5 32 Oeste 45 Oeste 0 1018.9 -1.1 66
2020-01-28 03:00:00 13.4 29 Oeste 41 Oeste 0 1019.2 -0.7 65
2020-01-28 02:00:00 12.8 24 Oeste 37 Sudoeste 0 1019.5 -0.6 77
2020-01-28 01:00:00 12.8 22 Oeste 35 Sudoeste 0 1020 -0.2 80
2020-01-28 00:00:00 13.1 24 Sudoeste 39 Sudoeste 0 1019.9 0.1 79
2020-01-27 23:00:00 13 25 Sudoeste 48 Oeste 0 1020.1 0.4 78
2020-01-27 22:00:00 13.1 28 Sudoeste 46 Oeste 0 1020.2 0.8 77
2020-01-27 21:00:00 13.3 30 Sudoeste 50 Sudoeste 0 1019.8 0.3 72
2020-01-27 20:00:00 13.2 32 Sudoeste 46 Sudoeste 0 1019.7 0.2 73
2020-01-27 19:00:00 13.2 32 Sudoeste 45 Sudoeste 0 1019.4 -0.1 69
2020-01-27 18:00:00 13.4 30 Sudoeste 45 Sudoeste 0 1019.5 -0.7 66
2020-01-27 17:00:00 13.8 33 Sudoeste 48 Sudoeste 0 1019.5 -1.5 60
2020-01-27 16:00:00 14.5 34 Sudoeste 46 Sudoeste 0 1019.5 -2.2 53
2020-01-27 15:00:00 14.4 28 Sudoeste 39 Oeste 0 1020.2 -2.5 63
2020-01-27 14:00:00 14.9 30 Sudoeste 41 Oeste 0 1021 -2 60
2020-01-27 13:00:00 14.8 23 Sur 35 Sur 0 1021.7 -1.2 63
2020-01-27 12:00:00 14.4 21 Sudoeste 30 Sudoeste 0 1022.7 0.1 65
2020-01-27 11:00:00 13.9 18 Oeste 26 Oeste 0 1023 0.7 58
2020-01-27 10:00:00 12.2 6 Oeste 11 Oeste 0 1022.9 1 76
2020-01-27 09:00:00 7.3 7 Sudoeste 11 Oeste 0 1022.6 1 91
2020-01-27 08:00:00 6.8 3 Sudoeste 9 Oeste 0 1022.3 0.6 90
2020-01-27 07:00:00 4.6 4 Sudoeste 8 Sur 0 1021.9 -0.2 89
2020-01-27 06:00:00 5.1 6 Norte 9 Noroeste 0 1021.6 -0.5 89
2020-01-27 05:00:00 5.6 9 Noroeste 11 Noroeste 0 1021.7 -0.7 89
2020-01-27 04:00:00 5.6 0 Calma 13 Noroeste 0 1022.1 -0.4 87
2020-01-27 03:00:00 6.1 6 Norte 9 Norte 0 1022.1 -0.3 90
2020-01-27 02:00:00 6.3 5 Norte 9 Norte 0 1022.4 0 90
2020-01-27 01:00:00 6.5 4 Norte 8 Norte 0 1022.5 0.4 89
2020-01-27 00:00:00 6.6 5 Norte 8 Nordeste 0 1022.4 0.7 88
2020-01-26 23:00:00 7.2 7 Norte 11 Noroeste 0 1022.4 1.1 86
2020-01-26 22:00:00 9 5 Norte 13 Norte 0 1022.1 1.5 83
2020-01-26 21:00:00 9.7 2 Noroeste 9 Noroeste 0 1021.7 1.7 83
2020-01-26 20:00:00 10.1 6 Noroeste 15 Noroeste 0 1021.3 2 80
2020-01-26 19:00:00 11.7 9 Oeste 17 Oeste 0 1020.6 1.3 74
2020-01-26 18:00:00 13.3 10 Oeste 26 Oeste 0 1020 1.1 64
2020-01-26 17:00:00 14.9 14 Oeste 26 Oeste 0 1019.3 0.4 55
2020-01-26 16:00:00 15.2 14 Oeste 24 Oeste 0 1019.3 0 57
2020-01-26 15:00:00 15.4 15 Oeste 24 Oeste 0 1018.9 -0.7 60
2020-01-26 14:00:00 15.3 15 Sudoeste 24 Sudoeste 0 1018.9 -0.7 65
2020-01-26 13:00:00 15.3 13 Oeste 24 Oeste 0 1019.3 0.4 70
2020-01-26 12:00:00 14.4 8 Oeste 32 Noroeste 1.1 1019.6 1.2 77
2020-01-26 11:00:00 14.2 13 Oeste 22 Oeste 0 1019.6 2.1 75
2020-01-26 10:00:00 13.5 3 Sudoeste 11 Oeste 0 1018.9 2.2 83
2020-01-26 09:00:00 11 8 Oeste 22 Sudoeste 0 1018.4 2 87
2020-01-26 08:00:00 10.8 8 Oeste 13 Oeste 0 1017.5 1.4 87
2020-01-26 07:00:00 10.3 8 Sur 9 Sur 0 1016.7 0.6 88
2020-01-26 06:00:00 11.2 9 Noroeste 13 Noroeste 0 1016.4 0.5 91
2020-01-26 05:00:00 10.3 10 Noroeste 13 Noroeste 0 1016.1 0.5 92
2020-01-26 04:00:00 9.6 3 Noroeste 11 Noroeste 0 1016.1 0.1 92
2020-01-26 03:00:00 9.2 4 Sur 9 Norte 0 1015.9 -0.2 92
2020-01-26 02:00:00 8.6 3 Norte 9 Norte 0 1015.6 -0.6 92
2020-01-26 01:00:00 9.3 5 Norte 11 Norte 0 1016 -0.1 91
2020-01-26 00:00:00 9.5 6 Norte 9 Norte 0 1016.1 0.3 91
2020-01-25 23:00:00 10 0 Calma 17 Noroeste 0 1016.2 0.6 90
2020-01-25 22:00:00 10.2 0 Calma 8 Norte 0 1016.1 1.5 89
2020-01-25 21:00:00 11.5 2 Norte 15 Oeste 0 1015.8 1.1 88
2020-01-25 20:00:00 12.3 10 Oeste 17 Oeste 0 1015.6 0.2 88
2020-01-25 19:00:00 13.5 11 Nordeste 22 Nordeste 0 1014.6 -0.6 86
2020-01-25 18:00:00 14 8 Este 21 Este 0 1014.7 -0.6 82
2020-01-25 17:00:00 14.4 5 Nordeste 11 Nordeste 0 1015.4 -0.6 82
2020-01-25 16:00:00 14.7 7 Este 17 Nordeste 0 1015.2 -1.8 81
2020-01-25 15:00:00 14.9 11 Nordeste 17 Nordeste 0 1015.3 -2.4 81
2020-01-25 14:00:00 15 11 Este 18 Este 0 1016 -1.8 81
2020-01-25 13:00:00 15.6 13 Este 26 Este 0 1017 -0.6 80
2020-01-25 12:00:00 15.3 17 Este 24 Este 0 1017.7 0.1 81
2020-01-25 11:00:00 14.7 10 Nordeste 18 Norte 0 1017.8 0.3 83
2020-01-25 10:00:00 12.2 11 Nordeste 26 Norte 0 1017.6 0.2 93
2020-01-25 09:00:00 8.8 6 Nordeste 11 Nordeste 0 1017.6 0.4 93
2020-01-25 08:00:00 8.5 7 Norte 11 Norte 0 1017.5 0.2 93
2020-01-25 07:00:00 8.4 5 Norte 11 Norte 0 1017.4 -0.5 93
2020-01-25 06:00:00 8.4 6 Norte 9 Norte 0 1017.2 -1.2 92
2020-01-25 05:00:00 9 5 Norte 11 Norte 0 1017.3 -1.4 92
2020-01-25 04:00:00 9 9 Norte 11 Norte 0 1017.9 -1.2 91
2020-01-25 03:00:00 9.9 0 Calma 8 Este 0 1018.4 -1.1 89
2020-01-25 02:00:00 12.5 5 Sudeste 11 Sudeste 0 1018.7 -1 86
2020-01-25 01:00:00 12.9 5 Sudeste 15 Sudeste 0 1019.1 -0.5 84
2020-01-25 00:00:00 12.8 8 Sudeste 13 Sudeste 0 1019.5 -0.1 84
2020-01-24 23:00:00 13.1 7 Este 15 Este 0 1019.7 0.1 82
2020-01-24 22:00:00 13 9 Este 13 Este 0 1019.6 0.2 84
2020-01-24 21:00:00 11.7 6 Este 9 Este 0 1019.6 0.8 86
2020-01-24 20:00:00 12.7 3 Nordeste 8 Este 0 1019.6 0.9 82
2020-01-24 19:00:00 12.7 4 Sudeste 11 Este 0 1019.4 0.3 81
2020-01-24 18:00:00 13.1 8 Este 17 Este 0 1018.8 -0.3 78
2020-01-24 17:00:00 13.7 9 Este 13 Este 0 1018.7 -0.7 76
2020-01-24 16:00:00 14.3 10 Este 17 Este 0 1019.1 -1 73
2020-01-24 15:00:00 14.7 10 Este 18 Este 0 1019.1 -1.2 73
2020-01-24 14:00:00 14.8 13 Este 18 Norte 0 1019.4 -1.1 74
2020-01-24 13:00:00 14.7 14 Nordeste 24 Este 0 1020.1 -0.2 73
2020-01-24 12:00:00 14.5 17 Este 24 Este 0 1020.3 0.2 75
2020-01-24 11:00:00 13.7 11 Nordeste 17 Nordeste 0 1020.5 0.7 81
2020-01-24 10:00:00 12.1 12 Nordeste 17 Nordeste 0 1020.3 0.9 90
2020-01-24 09:00:00 8.2 8 Norte 13 Norte 0 1020.1 0.7 93
2020-01-24 08:00:00 7.8 6 Norte 13 Norte 0 1019.8 0.4 93
2020-01-24 07:00:00 8.1 7 Norte 9 Norte 0 1019.4 -0.2 93
2020-01-24 06:00:00 8.1 7 Norte 9 Norte 0 1019.4 -0.5 92
2020-01-24 05:00:00 8.3 5 Norte 11 Norte 0 1019.4 -0.5 92
2020-01-24 04:00:00 8.8 6 Norte 11 Norte 0 1019.6 -0.7 92
2020-01-24 03:00:00 9 11 Norte 13 Norte 0 1019.9 -0.6 92
2020-01-24 02:00:00 8.2 10 Nordeste -- -- 0 1019.9 -0.5 92
2020-01-24 01:00:00 -- 9 Norte -- -- 0 1020.3 -0.2 --
2020-01-24 00:00:00 9.3 4 Norte 13 Nordeste 0 1020.5 0.2 91
2020-01-23 23:00:00 8.9 9 Norte 13 Nordeste 0 1020.4 0.2 90
2020-01-23 22:00:00 9 8 Norte 11 Norte 0 1020.5 0.8 89
2020-01-23 21:00:00 8.8 6 Norte -- -- 0 1020.3 1 89
2020-01-23 20:00:00 9.2 6 Norte 11 Norte 0 1020.2 1.2 88
2020-01-23 19:00:00 10.6 10 Norte 13 Norte 0 1019.7 0.9 86
2020-01-23 18:00:00 11.7 7 Nordeste 9 Este 0 1019.3 0.5 80
2020-01-23 17:00:00 14.2 8 Este 13 Este 0 1019 -0.3 73
2020-01-23 16:00:00 14.6 8 Este 15 Sudeste 0 1018.8 -1.3 73
2020-01-23 15:00:00 14.7 10 Este 17 Este 0 1018.8 -1.6 75
2020-01-23 14:00:00 15 11 Este 18 Sudeste 0 1019.3 -0.9 71
2020-01-23 13:00:00 14.4 7 Este 15 Nordeste 0 1020.1 0.7 74
2020-01-23 12:00:00 14.3 8 Este 11 Este 0 1020.4 1.6 71
2020-01-23 11:00:00 13.2 7 Este 9 Este 0 1020.2 1.9 81
2020-01-23 10:00:00 10.3 8 Nordeste 11 Nordeste 0 1019.4 1.6 91
2020-01-23 09:00:00 7.4 4 Nordeste 5 Nordeste 0 1018.8 1.6 92
2020-01-23 08:00:00 7.4 3 Nordeste 9 Este 0 1018.3 1.5 92
2020-01-23 07:00:00 7.7 7 Noroeste 9 Noroeste 0 1017.8 1.2 91
2020-01-23 06:00:00 7.7 5 Sudoeste 9 Sudoeste 0 1017.2 0.6 91
2020-01-23 05:00:00 7.6 5 Noroeste 8 Noroeste 0 1016.8 0.2 91
2020-01-23 04:00:00 8.5 0 Calma 8 Noroeste 0 1016.6 0.1 90
2020-01-23 03:00:00 9.9 4 Noroeste 9 Oeste 0 1016.6 0.1 89
2020-01-23 02:00:00 10.2 8 Oeste 15 Este 0 1016.6 0.6 87
2020-01-23 01:00:00 10.7 10 Norte 15 Nordeste 0.1 1016.5 1.4 87
2020-01-23 00:00:00 11.2 12 Norte 18 Nordeste 0 1016.5 1.2 82
2020-01-22 23:00:00 10.8 5 Noroeste 18 Norte 0 1016 1.4 83
2020-01-22 22:00:00 11.4 10 Norte 15 Noroeste 0.9 1015.1 0.6 87
2020-01-22 21:00:00 12.8 8 Oeste 21 Oeste 0.1 1015.3 1.8 88
2020-01-22 20:00:00 12.7 7 Nordeste 13 Noroeste 0 1014.6 1.4 87
2020-01-22 19:00:00 13.3 6 Noroeste 15 Noroeste 0 1014.5 1.1 86
2020-01-22 18:00:00 13.6 6 Nordeste 21 Nordeste 0 1013.5 -0.7 84
2020-01-22 17:00:00 14.3 11 Nordeste 18 Nordeste 0 1013.2 -1.7 80
2020-01-22 16:00:00 14.8 14 Nordeste 21 Nordeste 0 1013.4 -2.4 77
2020-01-22 15:00:00 14.9 14 Nordeste 28 Nordeste 0 1014.2 -2.2 77
2020-01-22 14:00:00 15.1 14 Nordeste 24 Nordeste 0 1014.9 -1.7 76
2020-01-22 13:00:00 14.7 12 Norte 24 Norte 0 1015.8 -0.7 81
2020-01-22 12:00:00 14.1 10 Nordeste 17 Nordeste 0 1016.4 -0.2 83
2020-01-22 11:00:00 13.3 10 Nordeste 17 Nordeste 0 1016.6 0 83
2020-01-22 10:00:00 11.8 9 Nordeste 13 Norte 0 1016.5 0.2 80
2020-01-22 09:00:00 11.4 10 Nordeste 26 Este 0 1016.6 0.1 84
2020-01-22 08:00:00 10.2 11 Nordeste 15 Nordeste 0 1016.6 -0.2 89
2020-01-22 07:00:00 9.8 10 Norte 17 Nordeste 0 1016.3 -0.5 89
2020-01-22 06:00:00 9.6 8 Nordeste 15 Norte 0 1016.5 -0.2 88
2020-01-22 05:00:00 8.8 10 Nordeste 15 Nordeste 0 1016.8 -0.1 86
2020-01-22 04:00:00 9 11 Nordeste 13 Nordeste 0 1016.8 -0.2 88
2020-01-22 03:00:00 7.3 9 Norte 11 Norte 0 1016.7 -0.7 90
2020-01-22 02:00:00 8 6 Norte 11 Norte 0 1016.9 -0.1 89
2020-01-22 01:00:00 -- 9 Norte 11 Norte 0 1017 0.4 --
2020-01-22 00:00:00 8.2 5 Norte 9 Norte 0 1017.4 1.2 88
2020-01-21 23:00:00 8.2 8 Norte 13 Norte 0 1017 1.7 87
2020-01-21 22:00:00 8.4 9 Norte 13 Norte 0 1016.6 2.3 86
2020-01-21 21:00:00 10.8 6 Sudeste 13 Sudeste 0 1016.2 2.7 78
2020-01-21 20:00:00 12.2 11 Sudeste 22 Sudeste 0 1015.3 2.5 73
2020-01-21 19:00:00 12.5 14 Sur 21 Sur 0 1014.3 2.1 77
2020-01-21 18:00:00 12.9 9 Sudeste 17 Sudeste 0 1013.5 1.8 72
2020-01-21 17:00:00 14 12 Sur 22 Sur 0 1012.8 1.1 69
2020-01-21 16:00:00 14.7 15 Sur 42 Sudeste 0 1012.2 0.2 70
2020-01-21 15:00:00 15.2 25 Sudeste 54 Sudeste 0 1011.7 -0.4 61
2020-01-21 14:00:00 15.4 30 Sudeste 52 Este 0 1011.7 -0.5 58
2020-01-21 13:00:00 15.1 27 Este 46 Este 0 1012 -0.7 68
2020-01-21 12:00:00 14.7 32 Nordeste 55 Este 0 1012.1 -0.7 79
2020-01-21 11:00:00 14 32 Este 59 Este 1.2 1012.2 0.6 66
2020-01-21 10:00:00 14.4 35 Este 54 Este 0.1 1012.7 1.4 80
2020-01-21 09:00:00 14.3 39 Norte 67 Este 0.5 1012.8 1.1 81
2020-01-21 08:00:00 14.4 42 Este 67 Este 0 1011.6 -0.3 78
2020-01-21 07:00:00 14.4 41 Este 67 Este 0 1011.3 -1.4 77
2020-01-21 06:00:00 14.3 32 Este 48 Este 0 1011.7 -1.1 73
2020-01-21 05:00:00 13.2 30 Este 63 Este 0.1 1011.9 -1.1 69
2020-01-21 04:00:00 14.6 32 Nordeste 55 Este 0 1012.7 -1.6 81
2020-01-21 03:00:00 14.6 35 Este 67 Este 0.1 1012.8 -3 82
2020-01-21 02:00:00 14 37 Nordeste 63 Nordeste 2.6 1013 -2.9 84
2020-01-21 01:00:00 13.6 31 Nordeste 52 Nordeste 1.2 1014.3 -1.3 81
2020-01-21 00:00:00 13.6 34 Nordeste 54 Este 0 1015.8 -0.6 79
2020-01-20 23:00:00 13.9 35 Nordeste 54 Nordeste 0 1015.9 -0.4 75
2020-01-20 22:00:00 13.5 27 Nordeste 45 Este 0 1015.6 -0.5 76
2020-01-20 21:00:00 13.2 27 Este 42 Este 0.3 1016.4 0.8 77
2020-01-20 20:00:00 13 18 Este 30 Este 0 1016.3 1.1 74
2020-01-20 19:00:00 13.1 17 Este 28 Norte 0 1016.1 1.1 69
2020-01-20 18:00:00 13.2 20 Este 30 Este 0 1015.6 0.7 73
2020-01-20 17:00:00 13.5 23 Este 35 Este 0 1015.2 0 66
2020-01-20 16:00:00 13.4 22 Este 32 Norte 0 1015 -0.8 77
2020-01-20 15:00:00 13.9 18 Este 32 Este 0 1014.9 -1 74
2020-01-20 14:00:00 13.3 21 Este 32 Este 0 1015.2 -0.5 77
2020-01-20 13:00:00 13.3 22 Este 33 Este 0 1015.8 0.7 75
2020-01-20 12:00:00 13.4 26 Nordeste 39 Este 0 1015.9 2 76
2020-01-20 11:00:00 11.8 23 Nordeste 42 Nordeste 0.9 1015.7 2.6 86
2020-01-20 10:00:00 13.3 20 Este 35 Este 0 1015.1 2.5 71
2020-01-20 09:00:00 12.5 18 Este 41 Este 0 1013.9 1.4 75
2020-01-20 08:00:00 12.2 26 Este 46 Este 0.1 1013.1 1.1 83
2020-01-20 07:00:00 10.7 32 Nordeste 54 Nordeste 1.8 1012.6 1 84
2020-01-20 06:00:00 10.5 33 Nordeste 68 Nordeste 1.8 1012.5 0.9 81
2020-01-20 05:00:00 10.3 46 Nordeste 74 Nordeste 2.1 1012 0.5 80
2020-01-20 04:00:00 10.3 44 Nordeste 71 Nordeste 2 1011.6 -0.5 80
2020-01-20 03:00:00 10.1 49 Nordeste 74 Nordeste 2.4 1011.6 -1.2 84
2020-01-20 02:00:00 9.8 53 Nordeste 78 Norte 2.8 1011.5 -1.1 82
2020-01-20 01:00:00 10.2 48 Nordeste 78 Nordeste 1.5 1012.1 -0.4 82
2020-01-20 00:00:00 10.2 54 Nordeste 82 Nordeste 0.4 1012.8 0.2 79
2020-01-19 23:00:00 10.2 49 Nordeste 71 Nordeste 0.3 1012.6 0.2 78
2020-01-19 22:00:00 10.1 48 Nordeste 72 Nordeste 1.6 1012.5 0.6 81
2020-01-19 21:00:00 9.8 44 Nordeste 76 Nordeste 4.9 1012.6 1.1 84
2020-01-19 20:00:00 10.1 46 Nordeste 74 Nordeste 2.8 1012.4 1.1 82
2020-01-19 19:00:00 10.8 46 Nordeste 78 Nordeste 0.4 1011.9 0.6 83
2020-01-19 18:00:00 10.8 37 Nordeste 72 Nordeste 0.2 1011.5 0.2 85
2020-01-19 17:00:00 11.3 42 Nordeste 65 Norte 2.1 1011.3 0.2 82
2020-01-19 16:00:00 11.1 34 Nordeste 59 Este 8.6 1011.3 -0.1 89
2020-01-19 15:00:00 13 12 Norte 24 Norte 0 1011.3 -0.7 75
2020-01-19 14:00:00 13.4 4 Sudeste 30 Sur 0 1011.1 -1.1 79
2020-01-19 13:00:00 14.2 23 Sudeste 42 Sudeste 0 1011.4 -0.7 79
2020-01-19 12:00:00 15 18 Este 26 Este 0 1012 0.7 80
2020-01-19 11:00:00 13.5 12 Nordeste 17 Nordeste 0 1012.2 0.2 85
2020-01-19 10:00:00 12.4 7 Este 18 Norte 0 1012.1 -0.1 87
2020-01-19 09:00:00 11.2 12 Nordeste 15 Nordeste 0 1011.3 -1.8 90
2020-01-19 08:00:00 11.1 9 Norte 11 Norte 0 1012 -1.8 90
2020-01-19 07:00:00 12.6 5 Este 15 Oeste 0 1012.2 -2.5 86
2020-01-19 06:00:00 12.6 8 Sudoeste 18 Sudoeste 0 1013.1 -2.4 86
2020-01-19 05:00:00 13.5 14 Sudoeste 26 Sudoeste 0 1013.8 -2.6 85
2020-01-19 04:00:00 13.8 19 Sudoeste 30 Sudoeste 0 1014.7 -2.8 83
2020-01-19 03:00:00 13.6 23 Sudoeste 33 Sudoeste 0 1015.5 -3.1 83
2020-01-19 02:00:00 13.3 26 Sudoeste 35 Oeste 0 1016.4 -2.8 82
2020-01-19 01:00:00 13.7 24 Sudoeste 37 Sudoeste 0 1017.5 -2.2 79
2020-01-19 00:00:00 13.8 27 Sudoeste 37 Sudoeste 0 1018.6 -1.9 76
2020-01-18 23:00:00 13.7 22 Sudoeste 32 Sudoeste 0 1019.2 -2 75
2020-01-18 22:00:00 13.1 17 Sudoeste 32 Sudoeste 0 1019.7 -1.9 77
2020-01-18 21:00:00 13.2 23 Sudoeste 39 Sudoeste 0 1020.5 -1.5 71
2020-01-18 20:00:00 13.3 22 Sudoeste 33 Sudoeste 0 1021.2 -1.5 69
2020-01-18 19:00:00 13.3 21 Sudoeste 32 Sudoeste 0 1021.6 -2.2 75
2020-01-18 18:00:00 13.3 18 Sudoeste 26 Sudoeste 0 1022 -2.6 73
2020-01-18 17:00:00 14.7 17 Sudoeste 24 Sudoeste 0 1022.7 -2.6 71
2020-01-18 16:00:00 15.1 16 Sudoeste 24 Sudoeste 0 1023.8 -3.2 70
2020-01-18 15:00:00 14.2 13 Sudoeste 18 Sudoeste 0 1024.6 -4.2 65
2020-01-18 14:00:00 14.3 10 Sur 13 Sur 0 1025.3 -4.2 67
2020-01-18 13:00:00 14.1 5 Este 8 Este 0 1027 -2.3 61
2020-01-18 12:00:00 13.4 4 Nordeste 11 Nordeste 0 1028.8 0 69
2020-01-18 11:00:00 12.6 7 Nordeste 13 Nordeste 0 1029.5 0.9 74
2020-01-18 10:00:00 11 6 Nordeste 9 Nordeste 0 1029.3 0.7 81
2020-01-18 09:00:00 7.8 4 Nordeste 15 Norte 0 1028.8 0.5 82
2020-01-18 08:00:00 6 8 Norte 11 Este 0 1028.6 -0.1 87
2020-01-18 07:00:00 6.7 3 Norte 11 Norte 0 1028.6 -0.7 83
2020-01-18 06:00:00 7.2 6 Norte 13 Norte 0 1028.3 -1.4 82
2020-01-18 05:00:00 7.5 11 Norte 13 Norte 0 1028.7 -1 83
2020-01-18 04:00:00 7.8 6 Norte 13 Norte 0 1029.3 -0.4 81
2020-01-18 03:00:00 7.7 8 Norte 11 Norte 0 1029.7 0.1 82
2020-01-18 02:00:00 7.5 8 Norte 9 Norte 0 1029.7 0.4 83
2020-01-18 01:00:00 7.8 8 Norte 11 Norte 0 1029.7 0.4 82
2020-01-18 00:00:00 10.1 9 Noroeste 15 Noroeste 0 1029.6 0.8 76